createdAt,value
2022-11-16T00:00:44.930Z,0.00
2022-11-16T00:01:34.942Z,0.00
2022-11-16T00:02:24.944Z,0.00
2022-11-16T00:03:14.891Z,0.00
2022-11-16T00:04:04.911Z,0.00
2022-11-16T00:04:54.880Z,0.00
2022-11-16T00:05:44.862Z,0.00
2022-11-16T00:06:34.859Z,0.00
2022-11-16T00:07:24.900Z,0.00
2022-11-16T00:08:14.830Z,0.00
2022-11-16T00:09:04.871Z,0.00
2022-11-16T00:09:54.827Z,0.00
2022-11-16T00:10:44.812Z,0.00
2022-11-16T00:11:34.812Z,0.00
2022-11-16T00:12:24.805Z,0.00
2022-11-16T00:13:14.827Z,0.00
2022-11-16T00:14:04.789Z,0.00
2022-11-16T00:14:54.789Z,0.00
2022-11-16T00:15:44.761Z,0.00
2022-11-16T00:16:34.739Z,0.00
2022-11-16T00:17:24.751Z,0.00
2022-11-16T00:18:14.739Z,0.00
2022-11-16T00:19:04.940Z,0.00
2022-11-16T00:19:54.720Z,0.00
2022-11-16T00:20:44.695Z,0.00
2022-11-16T00:21:34.684Z,0.00
2022-11-16T00:22:24.733Z,0.00
2022-11-16T00:23:14.674Z,0.00
2022-11-16T00:24:04.673Z,0.00
2022-11-16T00:24:54.875Z,0.00
2022-11-16T00:25:44.667Z,0.00
2022-11-16T00:26:34.639Z,0.00
2022-11-16T00:27:24.650Z,0.00
2022-11-16T00:28:14.620Z,0.00
2022-11-16T00:29:04.607Z,0.00
2022-11-16T00:29:54.597Z,0.00
2022-11-16T00:30:44.606Z,0.00
2022-11-16T00:31:34.587Z,0.00
2022-11-16T00:32:24.579Z,0.00
2022-11-16T00:33:14.596Z,0.00
2022-11-16T00:34:04.576Z,0.00
2022-11-16T00:34:54.535Z,0.00
2022-11-16T00:35:44.542Z,0.00
2022-11-16T00:36:34.545Z,0.00
2022-11-16T00:37:24.505Z,0.00
2022-11-16T00:38:14.507Z,0.00
2022-11-16T00:39:04.501Z,0.00
2022-11-16T00:39:54.475Z,0.00
2022-11-16T00:40:44.488Z,0.00
2022-11-16T00:41:34.474Z,0.00
2022-11-16T00:42:24.717Z,0.00
2022-11-16T00:43:14.442Z,0.00
2022-11-16T00:44:04.449Z,0.00
2022-11-16T00:44:54.417Z,0.00
2022-11-16T00:45:44.434Z,0.00
2022-11-16T00:46:34.394Z,0.00
2022-11-16T00:47:24.404Z,0.00
2022-11-16T00:48:14.424Z,0.00
2022-11-16T00:49:04.376Z,0.00
2022-11-16T00:49:54.394Z,0.00
2022-11-16T00:50:44.383Z,0.00
2022-11-16T00:51:34.362Z,0.00
2022-11-16T00:52:24.334Z,0.00
2022-11-16T00:53:14.333Z,0.00
2022-11-16T00:54:07.360Z,0.00
2022-11-16T00:54:54.321Z,0.00
2022-11-16T00:55:44.311Z,0.00
2022-11-16T00:56:34.308Z,0.00
2022-11-16T00:57:24.295Z,0.00
2022-11-16T00:58:14.265Z,0.00
2022-11-16T00:59:04.273Z,0.00
2022-11-16T00:59:54.282Z,0.00
2022-11-16T01:00:44.235Z,0.00
2022-11-16T01:01:34.387Z,0.00
2022-11-16T01:02:24.228Z,0.00
2022-11-16T01:03:14.223Z,0.00
2022-11-16T01:04:04.231Z,0.00
2022-11-16T01:04:54.192Z,0.00
2022-11-16T01:05:44.210Z,0.00
2022-11-16T01:06:34.194Z,0.00
2022-11-16T01:07:24.208Z,0.00
2022-11-16T01:08:14.182Z,0.00
2022-11-16T01:09:04.159Z,0.00
2022-11-16T01:09:54.638Z,0.00
2022-11-16T01:10:44.132Z,0.00
2022-11-16T01:11:34.143Z,0.00
2022-11-16T01:12:24.119Z,0.00
2022-11-16T01:13:14.123Z,0.00
2022-11-16T01:14:04.110Z,0.00
2022-11-16T01:14:54.081Z,0.00
2022-11-16T01:15:44.111Z,0.00
2022-11-16T01:16:34.091Z,0.00
2022-11-16T01:17:24.051Z,0.00
2022-11-16T01:18:14.050Z,0.00
2022-11-16T01:19:04.044Z,0.00
2022-11-16T01:19:54.025Z,0.00
2022-11-16T01:20:44.021Z,0.00
2022-11-16T01:21:34.278Z,0.00
2022-11-16T01:22:23.996Z,0.00
2022-11-16T01:23:13.996Z,0.00
2022-11-16T01:24:03.997Z,0.00
2022-11-16T01:24:53.989Z,0.00
2022-11-16T01:25:43.973Z,0.00
2022-11-16T01:26:33.958Z,0.00
2022-11-16T01:27:23.988Z,0.00
2022-11-16T01:28:14.201Z,0.00
2022-11-16T01:29:03.929Z,0.00
2022-11-16T01:29:53.910Z,0.00
2022-11-16T01:30:43.931Z,0.00
2022-11-16T01:31:33.909Z,0.00
2022-11-16T01:32:23.888Z,0.00
2022-11-16T01:33:13.889Z,0.00
2022-11-16T01:34:03.886Z,0.00
2022-11-16T01:34:53.857Z,0.00
2022-11-16T01:35:44.110Z,0.00
2022-11-16T01:36:33.846Z,0.00
2022-11-16T01:37:23.827Z,0.00
2022-11-16T01:38:13.839Z,0.00
2022-11-16T01:39:03.837Z,0.00
2022-11-16T01:39:53.817Z,0.00
2022-11-16T01:40:43.837Z,0.00
2022-11-16T01:41:33.807Z,0.00
2022-11-16T01:42:23.781Z,0.00
2022-11-16T01:43:13.791Z,0.00
2022-11-16T01:44:03.751Z,0.00
2022-11-16T01:44:53.763Z,0.00
2022-11-16T01:45:43.738Z,0.00
2022-11-16T01:46:33.745Z,0.00
2022-11-16T01:47:23.727Z,0.00
2022-11-16T01:48:13.770Z,0.00
2022-11-16T01:49:03.700Z,0.00
2022-11-16T01:49:53.685Z,0.00
2022-11-16T01:50:43.725Z,0.00
2022-11-16T01:51:33.679Z,0.00
2022-11-16T01:52:23.657Z,0.00
2022-11-16T01:53:13.657Z,0.00
2022-11-16T01:54:03.640Z,0.00
2022-11-16T01:54:53.635Z,0.00
2022-11-16T01:55:43.646Z,0.00
2022-11-16T01:56:33.642Z,0.00
2022-11-16T01:57:23.613Z,0.00
2022-11-16T01:58:13.614Z,0.00
2022-11-16T01:59:03.584Z,0.00
2022-11-16T01:59:53.647Z,0.00
2022-11-16T02:00:43.627Z,0.00
2022-11-16T02:01:33.606Z,0.00
2022-11-16T02:02:23.548Z,0.00
2022-11-16T02:03:13.545Z,0.00
2022-11-16T02:04:03.535Z,0.00
2022-11-16T02:04:53.541Z,0.00
2022-11-16T02:05:43.571Z,0.00
2022-11-16T02:06:33.528Z,0.00
2022-11-16T02:07:23.608Z,0.00
2022-11-16T02:08:13.493Z,0.00
2022-11-16T02:09:03.498Z,0.00
2022-11-16T02:09:53.463Z,0.00
2022-11-16T02:10:43.481Z,0.00
2022-11-16T02:11:33.962Z,0.00
2022-11-16T02:12:23.434Z,0.00
2022-11-16T02:13:13.442Z,0.00
2022-11-16T02:14:03.412Z,0.00
2022-11-16T02:14:53.423Z,0.00
2022-11-16T02:15:43.412Z,0.00
2022-11-16T02:16:33.405Z,0.00
2022-11-16T02:17:23.425Z,0.00
2022-11-16T02:18:13.375Z,0.00
2022-11-16T02:19:03.378Z,0.00
2022-11-16T02:19:53.372Z,0.00
2022-11-16T02:20:43.341Z,0.00
2022-11-16T02:21:33.361Z,0.00
2022-11-16T02:22:23.340Z,0.00
2022-11-16T02:23:13.432Z,0.00
2022-11-16T02:24:03.300Z,0.00
2022-11-16T02:24:53.296Z,0.00
2022-11-16T02:25:43.291Z,0.00
2022-11-16T02:26:33.273Z,0.00
2022-11-16T02:27:23.276Z,0.00
2022-11-16T02:28:13.281Z,0.00
2022-11-16T02:29:03.267Z,0.00
2022-11-16T02:29:53.254Z,0.00
2022-11-16T02:30:43.234Z,0.00
2022-11-16T02:31:33.267Z,0.00
2022-11-16T02:32:23.223Z,0.00
2022-11-16T02:33:13.230Z,0.00
2022-11-16T02:34:03.196Z,0.00
2022-11-16T02:34:53.193Z,0.00
2022-11-16T02:35:43.170Z,0.00
2022-11-16T02:36:33.161Z,0.00
2022-11-16T02:37:23.198Z,0.00
2022-11-16T02:38:13.399Z,0.00
2022-11-16T02:39:03.148Z,0.00
2022-11-16T02:39:53.120Z,0.00
2022-11-16T02:40:43.129Z,0.00
2022-11-16T02:41:33.119Z,0.00
2022-11-16T02:42:23.088Z,0.00
2022-11-16T02:43:13.119Z,0.00
2022-11-16T02:44:03.318Z,0.00
2022-11-16T02:44:53.070Z,0.00
2022-11-16T02:45:43.073Z,0.00
2022-11-16T02:46:33.055Z,0.00
2022-11-16T02:47:23.047Z,0.00
2022-11-16T02:48:13.036Z,0.00
2022-11-16T02:49:03.076Z,0.00
2022-11-16T02:49:53.026Z,0.00
2022-11-16T02:50:43.246Z,0.00
2022-11-16T02:51:33.006Z,0.00
2022-11-16T02:52:22.977Z,0.00
2022-11-16T02:53:12.984Z,0.00
2022-11-16T02:54:02.966Z,0.00
2022-11-16T02:54:52.956Z,0.00
2022-11-16T02:55:42.947Z,0.00
2022-11-16T02:56:32.956Z,0.00
2022-11-16T02:57:22.944Z,0.00
2022-11-16T02:58:12.930Z,0.00
2022-11-16T02:59:02.905Z,0.00
2022-11-16T02:59:53.137Z,0.00
2022-11-16T03:00:42.959Z,0.00
2022-11-16T03:01:32.913Z,0.00
2022-11-16T03:02:22.895Z,0.00
2022-11-16T03:03:12.874Z,0.00
2022-11-16T03:04:02.846Z,0.00
2022-11-16T03:04:52.886Z,0.00
2022-11-16T03:05:42.854Z,0.00
2022-11-16T03:06:32.826Z,0.00
2022-11-16T03:07:22.864Z,0.00
2022-11-16T03:08:12.814Z,0.00
2022-11-16T03:09:02.817Z,0.00
2022-11-16T03:09:52.787Z,0.00
2022-11-16T03:10:42.809Z,0.00
2022-11-16T03:11:32.786Z,0.00
2022-11-16T03:12:22.754Z,0.00
2022-11-16T03:13:12.753Z,0.00
2022-11-16T03:14:02.766Z,0.00
2022-11-16T03:14:52.744Z,0.00
2022-11-16T03:15:42.716Z,0.00
2022-11-16T03:16:32.760Z,0.00
2022-11-16T03:17:22.718Z,0.00
2022-11-16T03:18:12.714Z,0.00
2022-11-16T03:19:02.683Z,0.00
2022-11-16T03:19:52.693Z,0.00
2022-11-16T03:20:42.672Z,0.00
2022-11-16T03:21:32.654Z,0.00
2022-11-16T03:22:22.695Z,0.00
2022-11-16T03:23:12.651Z,0.00
2022-11-16T03:24:02.639Z,0.00
2022-11-16T03:24:52.615Z,0.00
2022-11-16T03:25:42.622Z,0.00
2022-11-16T03:26:32.601Z,0.00
2022-11-16T03:27:22.584Z,0.00
2022-11-16T03:28:12.676Z,0.00
2022-11-16T03:29:02.573Z,0.00
2022-11-16T03:29:52.562Z,0.00
2022-11-16T03:30:42.572Z,0.00
2022-11-16T03:31:32.546Z,0.00
2022-11-16T03:32:22.540Z,0.00
2022-11-16T03:33:12.528Z,0.00
2022-11-16T03:34:02.763Z,0.00
2022-11-16T03:34:52.513Z,0.00
2022-11-16T03:35:42.513Z,0.00
2022-11-16T03:36:32.525Z,0.00
2022-11-16T03:37:22.482Z,0.00
2022-11-16T03:38:12.478Z,0.00
2022-11-16T03:39:02.472Z,0.00
2022-11-16T03:39:52.507Z,0.00
2022-11-16T03:40:42.431Z,0.00
2022-11-16T03:41:32.441Z,0.00
2022-11-16T03:42:22.420Z,0.00
2022-11-16T03:43:12.426Z,0.00
2022-11-16T03:44:02.423Z,0.00
2022-11-16T03:44:52.390Z,0.00
2022-11-16T03:45:42.601Z,0.00
2022-11-16T03:46:32.387Z,0.00
2022-11-16T03:47:22.371Z,0.00
2022-11-16T03:48:12.352Z,0.00
2022-11-16T03:49:02.356Z,0.00
2022-11-16T03:49:52.358Z,0.00
2022-11-16T03:50:42.320Z,0.00
2022-11-16T03:51:32.341Z,0.00
2022-11-16T03:52:22.310Z,0.00
2022-11-16T03:53:12.299Z,0.00
2022-11-16T03:54:02.306Z,0.00
2022-11-16T03:54:52.290Z,0.00
2022-11-16T03:55:47.004Z,0.00
2022-11-16T03:56:33.302Z,0.00
2022-11-16T03:57:22.270Z,0.00
2022-11-16T03:58:12.258Z,0.00
2022-11-16T03:59:02.238Z,0.00
2022-11-16T03:59:52.234Z,0.00
2022-11-16T04:00:42.245Z,0.00
2022-11-16T04:01:32.217Z,0.00
2022-11-16T04:02:22.455Z,0.00
2022-11-16T04:03:12.199Z,0.00
2022-11-16T04:04:02.254Z,0.00
2022-11-16T04:04:52.167Z,0.00
2022-11-16T04:05:42.201Z,0.00
2022-11-16T04:06:32.167Z,0.00
2022-11-16T04:07:22.179Z,0.00
2022-11-16T04:08:12.156Z,0.00
2022-11-16T04:09:02.147Z,0.00
2022-11-16T04:09:52.127Z,0.00
2022-11-16T04:10:42.115Z,0.00
2022-11-16T04:11:32.086Z,0.00
2022-11-16T04:12:22.085Z,0.00
2022-11-16T04:13:12.086Z,0.00
2022-11-16T04:14:06.542Z,0.00
2022-11-16T04:14:53.294Z,0.00
2022-11-16T04:15:42.035Z,0.00
2022-11-16T04:16:32.036Z,0.00
2022-11-16T04:17:22.038Z,0.00
2022-11-16T04:18:12.041Z,0.00
2022-11-16T04:19:02.017Z,0.00
2022-11-16T04:19:57.786Z,0.00
2022-11-16T04:20:42.996Z,0.00
2022-11-16T04:21:31.977Z,0.00
2022-11-16T04:22:21.987Z,0.00
2022-11-16T04:23:11.958Z,0.00
2022-11-16T04:24:01.966Z,0.00
2022-11-16T04:24:51.953Z,0.00
2022-11-16T04:25:42.275Z,0.00
2022-11-16T04:26:31.942Z,0.00
2022-11-16T04:27:21.914Z,0.00
2022-11-16T04:28:11.923Z,0.00
2022-11-16T04:29:01.900Z,0.00
2022-11-16T04:29:51.895Z,0.00
2022-11-16T04:30:41.890Z,0.00
2022-11-16T04:31:31.898Z,0.00
2022-11-16T04:32:21.863Z,0.00
2022-11-16T04:33:11.844Z,0.00
2022-11-16T04:34:01.848Z,0.00
2022-11-16T04:34:51.843Z,0.00
2022-11-16T04:35:41.824Z,0.00
2022-11-16T04:36:31.806Z,0.00
2022-11-16T04:37:22.116Z,0.00
2022-11-16T04:38:11.794Z,0.00
2022-11-16T04:39:01.800Z,0.00
2022-11-16T04:39:51.783Z,0.00
2022-11-16T04:40:41.764Z,0.00
2022-11-16T04:41:31.758Z,0.00
2022-11-16T04:42:21.779Z,0.00
2022-11-16T04:43:11.784Z,0.00
2022-11-16T04:44:01.723Z,0.00
2022-11-16T04:44:51.713Z,0.00
2022-11-16T04:45:41.743Z,0.00
2022-11-16T04:46:31.690Z,0.00
2022-11-16T04:47:21.708Z,0.00
2022-11-16T04:48:11.672Z,0.00
2022-11-16T04:49:01.885Z,0.00
2022-11-16T04:49:51.665Z,0.00
2022-11-16T04:50:41.651Z,0.00
2022-11-16T04:51:31.632Z,0.00
2022-11-16T04:52:21.631Z,0.00
2022-11-16T04:53:11.649Z,0.00
2022-11-16T04:54:01.622Z,0.00
2022-11-16T04:54:51.693Z,0.00
2022-11-16T04:55:41.608Z,0.00
2022-11-16T04:56:31.581Z,0.00
2022-11-16T04:57:21.582Z,0.00
2022-11-16T04:58:11.561Z,0.00
2022-11-16T04:59:01.571Z,0.00
2022-11-16T04:59:51.581Z,0.00
2022-11-16T05:00:41.609Z,0.00
2022-11-16T05:01:31.581Z,0.00
2022-11-16T05:02:21.531Z,0.00
2022-11-16T05:03:11.509Z,0.00
2022-11-16T05:04:01.510Z,0.00
2022-11-16T05:04:51.501Z,0.00
2022-11-16T05:05:41.504Z,0.00
2022-11-16T05:06:31.500Z,0.00
2022-11-16T05:07:21.572Z,0.00
2022-11-16T05:08:11.473Z,0.00
2022-11-16T05:09:01.461Z,0.00
2022-11-16T05:09:51.435Z,0.00
2022-11-16T05:10:41.442Z,0.00
2022-11-16T05:11:31.440Z,0.00
2022-11-16T05:12:21.411Z,0.00
2022-11-16T05:13:11.427Z,0.00
2022-11-16T05:14:01.401Z,0.00
2022-11-16T05:14:51.374Z,0.00
2022-11-16T05:15:41.399Z,0.00
2022-11-16T05:16:31.398Z,0.00
2022-11-16T05:17:21.360Z,0.00
2022-11-16T05:18:11.330Z,0.00
2022-11-16T05:19:01.379Z,0.00
2022-11-16T05:19:51.337Z,0.00
2022-11-16T05:20:41.345Z,0.00
2022-11-16T05:21:31.306Z,0.00
2022-11-16T05:22:21.289Z,0.00
2022-11-16T05:23:11.280Z,0.00
2022-11-16T05:24:01.312Z,0.00
2022-11-16T05:24:51.529Z,0.00
2022-11-16T05:25:41.260Z,0.00
2022-11-16T05:26:31.251Z,0.00
2022-11-16T05:27:21.242Z,0.00
2022-11-16T05:28:11.219Z,0.00
2022-11-16T05:29:01.240Z,0.00
2022-11-16T05:29:51.230Z,0.00
2022-11-16T05:30:41.288Z,0.00
2022-11-16T05:31:33.085Z,0.00
2022-11-16T05:32:22.197Z,0.00
2022-11-16T05:33:11.165Z,0.00
2022-11-16T05:34:01.190Z,0.00
2022-11-16T05:34:51.168Z,0.00
2022-11-16T05:35:41.163Z,0.00
2022-11-16T05:36:31.358Z,0.00
2022-11-16T05:37:21.147Z,0.00
2022-11-16T05:38:11.124Z,0.00
2022-11-16T05:39:01.195Z,0.00
2022-11-16T05:39:51.110Z,0.00
2022-11-16T05:40:41.088Z,0.00
2022-11-16T05:41:31.107Z,0.00
2022-11-16T05:42:21.097Z,0.00
2022-11-16T05:43:11.071Z,0.00
2022-11-16T05:44:01.064Z,0.00
2022-11-16T05:44:51.036Z,0.00
2022-11-16T05:45:41.033Z,0.00
2022-11-16T05:46:31.026Z,0.00
2022-11-16T05:47:21.127Z,0.00
2022-11-16T05:48:11.002Z,0.00
2022-11-16T05:49:01.009Z,0.00
2022-11-16T05:49:50.989Z,0.00
2022-11-16T05:50:42.995Z,0.00
2022-11-16T05:51:30.985Z,0.00
2022-11-16T05:52:20.976Z,0.00
2022-11-16T05:53:10.984Z,0.00
2022-11-16T05:54:00.958Z,0.00
2022-11-16T05:54:50.926Z,0.00
2022-11-16T05:55:40.963Z,0.00
2022-11-16T05:56:30.988Z,0.00
2022-11-16T05:57:20.909Z,0.00
2022-11-16T05:58:10.908Z,0.00
2022-11-16T05:59:00.893Z,0.00
2022-11-16T05:59:50.881Z,0.00
2022-11-16T06:00:40.886Z,0.00
2022-11-16T06:01:31.104Z,0.00
2022-11-16T06:02:20.844Z,0.00
2022-11-16T06:03:10.904Z,0.00
2022-11-16T06:04:00.824Z,0.00
2022-11-16T06:04:50.811Z,0.00
2022-11-16T06:05:40.958Z,0.00
2022-11-16T06:06:30.793Z,0.00
2022-11-16T06:07:20.909Z,0.00
2022-11-16T06:08:10.805Z,0.00
2022-11-16T06:09:00.764Z,0.00
2022-11-16T06:09:50.794Z,4.00
2022-11-16T06:10:40.763Z,4.00
2022-11-16T06:11:35.479Z,0.00
2022-11-16T06:12:21.778Z,4.00
2022-11-16T06:13:10.735Z,4.00
2022-11-16T06:14:00.734Z,8.00
2022-11-16T06:14:50.709Z,8.00
2022-11-16T06:15:40.693Z,8.00
2022-11-16T06:16:30.713Z,8.00
2022-11-16T06:17:20.675Z,12.00
2022-11-16T06:18:10.959Z,12.00
2022-11-16T06:19:00.680Z,12.00
2022-11-16T06:19:50.655Z,12.00
2022-11-16T06:20:40.653Z,20.00
2022-11-16T06:21:30.642Z,16.00
2022-11-16T06:22:20.615Z,20.00
2022-11-16T06:23:10.604Z,24.00
2022-11-16T06:24:00.632Z,28.00
2022-11-16T06:24:50.604Z,28.00
2022-11-16T06:25:40.573Z,28.00
2022-11-16T06:26:30.582Z,32.00
2022-11-16T06:27:20.552Z,40.00
2022-11-16T06:28:10.553Z,48.00
2022-11-16T06:29:00.563Z,52.00
2022-11-16T06:29:50.648Z,56.00
2022-11-16T06:30:40.541Z,56.00
2022-11-16T06:31:30.512Z,52.00
2022-11-16T06:32:20.521Z,56.00
2022-11-16T06:33:10.502Z,72.00
2022-11-16T06:34:00.495Z,80.00
2022-11-16T06:34:50.489Z,76.00
2022-11-16T06:35:40.714Z,84.00
2022-11-16T06:36:30.473Z,92.00
2022-11-16T06:37:20.469Z,136.00
2022-11-16T06:38:10.432Z,172.00
2022-11-16T06:39:00.438Z,184.00
2022-11-16T06:39:50.410Z,200.00
2022-11-16T06:40:40.409Z,252.00
2022-11-16T06:41:30.432Z,272.00
2022-11-16T06:42:20.413Z,336.00
2022-11-16T06:43:10.381Z,360.00
2022-11-16T06:44:00.390Z,380.00
2022-11-16T06:44:50.371Z,380.00
2022-11-16T06:45:40.352Z,400.00
2022-11-16T06:46:30.330Z,456.00
2022-11-16T06:47:20.381Z,520.00
2022-11-16T06:48:10.329Z,516.00
2022-11-16T06:49:00.334Z,524.00
2022-11-16T06:49:50.319Z,564.00
2022-11-16T06:50:40.299Z,668.00
2022-11-16T06:51:30.278Z,636.00
2022-11-16T06:52:20.288Z,632.00
2022-11-16T06:53:10.305Z,636.00
2022-11-16T06:54:00.259Z,684.00
2022-11-16T06:54:50.272Z,656.00
2022-11-16T06:55:40.250Z,652.00
2022-11-16T06:56:30.240Z,716.00
2022-11-16T06:57:20.237Z,848.00
2022-11-16T06:58:10.208Z,944.00
2022-11-16T06:59:00.257Z,896.00
2022-11-16T06:59:50.198Z,868.00
2022-11-16T07:00:40.188Z,936.00
2022-11-16T07:01:30.359Z,916.00
2022-11-16T07:02:20.179Z,948.00
2022-11-16T07:03:10.171Z,1064.00
2022-11-16T07:04:00.149Z,1144.00
2022-11-16T07:04:50.134Z,1196.00
2022-11-16T07:05:40.151Z,1096.00
2022-11-16T07:06:30.114Z,1140.00
2022-11-16T07:07:20.209Z,1108.00
2022-11-16T07:08:10.108Z,1076.00
2022-11-16T07:09:00.089Z,1068.00
2022-11-16T07:09:50.080Z,1180.00
2022-11-16T07:10:40.088Z,1248.00
2022-11-16T07:11:30.077Z,1276.00
2022-11-16T07:12:20.064Z,1364.00
2022-11-16T07:13:10.787Z,1524.00
2022-11-16T07:14:00.047Z,1656.00
2022-11-16T07:14:50.019Z,1820.00
2022-11-16T07:15:40.036Z,1708.00
2022-11-16T07:16:30.006Z,1912.00
2022-11-16T07:17:19.995Z,1660.00
2022-11-16T07:18:09.985Z,1636.00
2022-11-16T07:19:00.200Z,1844.00
2022-11-16T07:19:49.970Z,2032.00
2022-11-16T07:20:39.975Z,2180.00
2022-11-16T07:21:29.960Z,1976.00
2022-11-16T07:22:19.944Z,1976.00
2022-11-16T07:23:13.941Z,1884.00
2022-11-16T07:23:59.934Z,1956.00
2022-11-16T07:24:49.946Z,1840.00
2022-11-16T07:25:39.905Z,1612.00
2022-11-16T07:26:29.915Z,1340.00
2022-11-16T07:27:19.894Z,1320.00
2022-11-16T07:28:09.875Z,1156.00
2022-11-16T07:28:59.884Z,1096.00
2022-11-16T07:29:49.884Z,1084.00
2022-11-16T07:30:40.366Z,1216.00
2022-11-16T07:31:29.846Z,1280.00
2022-11-16T07:32:19.847Z,1316.00
2022-11-16T07:33:09.818Z,1292.00
2022-11-16T07:33:59.805Z,1308.00
2022-11-16T07:34:49.813Z,1176.00
2022-11-16T07:35:39.795Z,1072.00
2022-11-16T07:36:29.805Z,1196.00
2022-11-16T07:37:19.816Z,1344.00
2022-11-16T07:38:13.103Z,1304.00
2022-11-16T07:39:00.763Z,1484.00
2022-11-16T07:39:49.752Z,1568.00
2022-11-16T07:40:39.733Z,1632.00
2022-11-16T07:41:29.725Z,1636.00
2022-11-16T07:42:19.984Z,1728.00
2022-11-16T07:43:09.693Z,1800.00
2022-11-16T07:43:59.717Z,1812.00
2022-11-16T07:44:49.689Z,1796.00
2022-11-16T07:45:39.682Z,1832.00
2022-11-16T07:46:46.980Z,1852.00
2022-11-16T07:47:20.881Z,1892.00
2022-11-16T07:48:09.654Z,1844.00
2022-11-16T07:48:59.667Z,1868.00
2022-11-16T07:49:49.642Z,1848.00
2022-11-16T07:50:39.641Z,1744.00
2022-11-16T07:51:29.622Z,1732.00
2022-11-16T07:52:19.602Z,1784.00
2022-11-16T07:53:09.833Z,1764.00
2022-11-16T07:53:59.600Z,1836.00
2022-11-16T07:54:49.571Z,1808.00
2022-11-16T07:55:39.589Z,1768.00
2022-11-16T07:56:29.581Z,1912.00
2022-11-16T07:57:19.558Z,2104.00
2022-11-16T07:58:09.551Z,2416.00
2022-11-16T07:58:59.561Z,2460.00
2022-11-16T07:59:49.533Z,2316.00
2022-11-16T08:00:39.510Z,2416.00
2022-11-16T08:01:29.540Z,2580.00
2022-11-16T08:02:19.509Z,2688.00
2022-11-16T08:03:09.499Z,2808.00
2022-11-16T08:03:59.472Z,2980.00
2022-11-16T08:04:49.517Z,2992.00
2022-11-16T08:05:39.470Z,2992.00
2022-11-16T08:06:29.448Z,3088.00
2022-11-16T08:07:19.500Z,3024.00
2022-11-16T08:08:09.438Z,2884.00
2022-11-16T08:08:59.452Z,2876.00
2022-11-16T08:09:49.469Z,2776.00
2022-11-16T08:10:39.488Z,2680.00
2022-11-16T08:11:29.398Z,2796.00
2022-11-16T08:12:19.372Z,3236.00
2022-11-16T08:13:09.379Z,3140.00
2022-11-16T08:13:59.359Z,2812.00
2022-11-16T08:14:49.348Z,3016.00
2022-11-16T08:15:39.353Z,3464.00
2022-11-16T08:16:29.359Z,3440.00
2022-11-16T08:17:19.334Z,3472.00
2022-11-16T08:18:09.331Z,3588.00
2022-11-16T08:18:59.300Z,2812.00
2022-11-16T08:19:49.322Z,2824.00
2022-11-16T08:20:39.290Z,2764.00
2022-11-16T08:21:29.275Z,2832.00
2022-11-16T08:22:19.329Z,2980.00
2022-11-16T08:23:09.275Z,3044.00
2022-11-16T08:23:59.345Z,3104.00
2022-11-16T08:24:49.254Z,3244.00
2022-11-16T08:25:39.239Z,3784.00
2022-11-16T08:26:29.218Z,4904.00
2022-11-16T08:27:19.226Z,5660.00
2022-11-16T08:28:09.436Z,5188.00
2022-11-16T08:28:59.219Z,5392.00
2022-11-16T08:29:49.191Z,5648.00
2022-11-16T08:30:39.185Z,4908.00
2022-11-16T08:31:29.189Z,4240.00
2022-11-16T08:32:19.157Z,3424.00
2022-11-16T08:33:09.136Z,4160.00
2022-11-16T08:33:59.286Z,5336.00
2022-11-16T08:34:49.137Z,5424.00
2022-11-16T08:35:39.108Z,4372.00
2022-11-16T08:36:29.131Z,5428.00
2022-11-16T08:37:19.095Z,4808.00
2022-11-16T08:38:09.106Z,4592.00
2022-11-16T08:38:59.088Z,4724.00
2022-11-16T08:39:49.123Z,3864.00
2022-11-16T08:40:39.076Z,3876.00
2022-11-16T08:41:29.055Z,4200.00
2022-11-16T08:42:19.066Z,5024.00
2022-11-16T08:43:09.075Z,5220.00
2022-11-16T08:43:59.026Z,4688.00
2022-11-16T08:44:49.030Z,5456.00
2022-11-16T08:45:39.258Z,4928.00
2022-11-16T08:46:29.006Z,4160.00
2022-11-16T08:47:18.988Z,4572.00
2022-11-16T08:48:08.995Z,5392.00
2022-11-16T08:48:58.957Z,4532.00
2022-11-16T08:49:49.980Z,4244.00
2022-11-16T08:51:02.398Z,4668.00
2022-11-16T08:51:30.184Z,4828.00
2022-11-16T08:52:18.958Z,4772.00
2022-11-16T08:53:08.942Z,5236.00
2022-11-16T08:53:58.920Z,4812.00
2022-11-16T08:54:48.915Z,5700.00
2022-11-16T08:55:38.916Z,4260.00
2022-11-16T08:56:28.909Z,4060.00
2022-11-16T08:57:18.903Z,4784.00
2022-11-16T08:58:08.884Z,4976.00
2022-11-16T08:58:59.531Z,5312.00
2022-11-16T08:59:48.865Z,5052.00
2022-11-16T09:00:38.833Z,5368.00
2022-11-16T09:01:28.946Z,5284.00
2022-11-16T09:02:18.821Z,4616.00
2022-11-16T09:03:08.854Z,4920.00
2022-11-16T09:03:58.815Z,5116.00
2022-11-16T09:04:48.834Z,4648.00
2022-11-16T09:05:38.782Z,4440.00
2022-11-16T09:06:28.776Z,3948.00
2022-11-16T09:07:18.797Z,4048.00
2022-11-16T09:08:08.749Z,4448.00
2022-11-16T09:08:59.017Z,5080.00
2022-11-16T09:09:48.958Z,4368.00
2022-11-16T09:10:38.720Z,4820.00
2022-11-16T09:11:28.725Z,4632.00
2022-11-16T09:12:18.704Z,5004.00
2022-11-16T09:13:08.694Z,4940.00
2022-11-16T09:13:58.707Z,3888.00
2022-11-16T09:14:48.931Z,4556.00
2022-11-16T09:15:38.661Z,5420.00
2022-11-16T09:16:28.662Z,4804.00
2022-11-16T09:17:22.997Z,4452.00
2022-11-16T09:18:08.711Z,4880.00
2022-11-16T09:18:58.641Z,4668.00
2022-11-16T09:19:48.622Z,3860.00
2022-11-16T09:20:38.831Z,4200.00
2022-11-16T09:21:28.612Z,4476.00
2022-11-16T09:22:18.596Z,4992.00
2022-11-16T09:23:08.591Z,3332.00
2022-11-16T09:23:58.567Z,3220.00
2022-11-16T09:24:48.560Z,3920.00
2022-11-16T09:25:38.563Z,4492.00
2022-11-16T09:26:28.772Z,4116.00
2022-11-16T09:27:18.552Z,3752.00
2022-11-16T09:28:08.525Z,3364.00
2022-11-16T09:28:58.527Z,3588.00
2022-11-16T09:29:48.521Z,3424.00
2022-11-16T09:30:38.510Z,3064.00
2022-11-16T09:31:28.491Z,2668.00
2022-11-16T09:32:18.569Z,3160.00
2022-11-16T09:33:08.480Z,3780.00
2022-11-16T09:33:58.667Z,3240.00
2022-11-16T09:34:48.459Z,2748.00
2022-11-16T09:35:38.438Z,3148.00
2022-11-16T09:36:28.434Z,3988.00
2022-11-16T09:37:18.431Z,2772.00
2022-11-16T09:38:08.485Z,2524.00
2022-11-16T09:39:49.440Z,3320.00
2022-11-16T09:40:38.379Z,3680.00
2022-11-16T09:41:28.378Z,3356.00
2022-11-16T09:42:18.412Z,3252.00
2022-11-16T09:43:08.350Z,3256.00
2022-11-16T09:43:58.550Z,3052.00
2022-11-16T09:44:48.356Z,3028.00
2022-11-16T09:45:38.578Z,3136.00
2022-11-16T09:46:28.339Z,2748.00
2022-11-16T09:47:18.314Z,2620.00
2022-11-16T09:48:08.330Z,3288.00
2022-11-16T09:48:58.323Z,3276.00
2022-11-16T09:49:48.537Z,3000.00
2022-11-16T09:50:38.279Z,2464.00
2022-11-16T09:51:28.288Z,2416.00
2022-11-16T09:52:18.258Z,2248.00
2022-11-16T09:53:09.529Z,1968.00
2022-11-16T09:53:58.239Z,2244.00
2022-11-16T09:54:48.246Z,2436.00
2022-11-16T09:55:38.251Z,2172.00
2022-11-16T09:56:28.217Z,2344.00
2022-11-16T09:57:18.196Z,2720.00
2022-11-16T09:58:08.186Z,3308.00
2022-11-16T09:58:58.199Z,2964.00
2022-11-16T09:59:49.688Z,2084.00
2022-11-16T10:00:38.232Z,2096.00
2022-11-16T10:01:28.609Z,2080.00
2022-11-16T10:02:18.148Z,2124.00
2022-11-16T10:03:08.149Z,2064.00
2022-11-16T10:03:58.742Z,2004.00
2022-11-16T10:04:48.170Z,2024.00
2022-11-16T10:05:38.234Z,2056.00
2022-11-16T10:06:28.264Z,2060.00
2022-11-16T10:07:18.691Z,2084.00
2022-11-16T10:08:08.154Z,2160.00
2022-11-16T10:08:59.143Z,2132.00
2022-11-16T10:09:48.111Z,2124.00
2022-11-16T10:10:38.042Z,1984.00
2022-11-16T10:11:28.050Z,2024.00
2022-11-16T10:12:18.039Z,2084.00
2022-11-16T10:13:08.891Z,2076.00
2022-11-16T10:14:03.822Z,2056.00
2022-11-16T10:14:49.019Z,2068.00
2022-11-16T10:15:37.979Z,2108.00
2022-11-16T10:16:28.020Z,2192.00
2022-11-16T10:17:17.995Z,2368.00
2022-11-16T10:18:07.980Z,2568.00
2022-11-16T10:18:58.821Z,2568.00
2022-11-16T10:19:48.004Z,3204.00
2022-11-16T10:20:37.958Z,2840.00
2022-11-16T10:21:27.949Z,2148.00
2022-11-16T10:22:17.931Z,2132.00
2022-11-16T10:23:07.917Z,2272.00
2022-11-16T10:23:57.910Z,2448.00
2022-11-16T10:24:47.945Z,2384.00
2022-11-16T10:25:37.871Z,2144.00
2022-11-16T10:26:27.887Z,2140.00
2022-11-16T10:27:21.859Z,2164.00
2022-11-16T10:28:07.858Z,2144.00
2022-11-16T10:28:57.890Z,2148.00
2022-11-16T10:29:48.791Z,2148.00
2022-11-16T10:30:38.123Z,2172.00
2022-11-16T10:31:27.838Z,2228.00
2022-11-16T10:32:17.812Z,2328.00
2022-11-16T10:33:11.343Z,2308.00
2022-11-16T10:33:57.810Z,2264.00
2022-11-16T10:34:47.768Z,2336.00
2022-11-16T10:35:37.768Z,2156.00
2022-11-16T10:36:28.040Z,2248.00
2022-11-16T10:37:17.738Z,2264.00
2022-11-16T10:38:07.814Z,2272.00
2022-11-16T10:38:57.853Z,2356.00
2022-11-16T10:39:48.677Z,2504.00
2022-11-16T10:40:37.751Z,2956.00
2022-11-16T10:41:27.748Z,2336.00
2022-11-16T10:42:17.836Z,2284.00